Time;durP1;ratioP1;P1;durP2;ratioP2;P2;SDS_P1;SDS_P2;PMS_P1;PMS_P2;Temp;Humidity;BMP_temperature;BMP_pressure;BME280_temperature;BME280_humidity;BME280_pressure;Samples;Min_cycle;Max_cycle;Signal;HPM_P1;HPM_P2
2024/02/16 00:00:19;;;;;;;12.10;6.22;;;;;;;14.10;100.00;100969.28;10438526;28;20094;-78
2024/02/16 00:05:43;;;;;;;11.95;6.75;;;;;;;13.89;100.00;100982.44;10508494;28;20044;-78
2024/02/16 00:11:06;;;;;;;8.75;5.60;;;;;;;13.56;100.00;100981.34;10453874;28;20171;-78
2024/02/16 00:16:28;;;;;;;13.70;6.90;;;;;;;13.24;100.00;100984.63;10498116;28;20099;-78
2024/02/16 00:21:52;;;;;;;13.48;7.00;;;;;;;13.03;100.00;100980.00;10475846;28;20075;-78
2024/02/16 00:27:15;;;;;;;30.10;16.60;;;;;;;13.05;100.00;100979.13;10469799;28;20435;-79
2024/02/16 00:32:37;;;;;;;19.33;10.30;;;;;;;13.15;100.00;100982.78;10439693;28;20052;-79
2024/02/16 00:38:01;;;;;;;17.55;7.65;;;;;;;13.01;100.00;100977.31;10446422;28;20407;-79
2024/02/16 00:43:24;;;;;;;14.65;6.60;;;;;;;12.91;100.00;100969.28;10441304;28;20049;-77
2024/02/16 00:48:47;;;;;;;14.77;7.40;;;;;;;13.04;100.00;100974.72;10439797;28;20049;-78
2024/02/16 00:54:11;;;;;;;15.73;7.18;;;;;;;13.00;100.00;100978.19;10442154;28;20059;-79
2024/02/16 00:59:33;;;;;;;11.32;5.60;;;;;;;12.92;100.00;100964.00;10466775;28;20048;-78
2024/02/16 01:05:01;;;;;;;10.18;5.80;;;;;;;12.79;100.00;100970.06;10504067;28;20624;-78
2024/02/16 01:10:25;;;;;;;10.25;5.95;;;;;;;12.74;100.00;100964.69;10497805;28;20045;-78
2024/02/16 01:15:48;;;;;;;10.13;6.32;;;;;;;12.82;100.00;100961.22;10481061;28;20072;-78
2024/02/16 01:21:10;;;;;;;15.50;7.10;;;;;;;12.83;100.00;100961.25;10465312;28;20099;-79
2024/02/16 01:26:34;;;;;;;12.60;6.55;;;;;;;12.82;100.00;100955.94;10472055;28;20048;-78
2024/02/16 01:31:57;;;;;;;26.25;13.70;;;;;;;13.02;100.00;100957.91;10501106;28;20071;-79
2024/02/16 01:37:20;;;;;;;16.13;8.05;;;;;;;13.16;100.00;100964.25;10435658;28;20048;-78
2024/02/16 01:42:44;;;;;;;14.00;7.90;;;;;;;13.37;100.00;100962.63;10481641;28;20057;-78
2024/02/16 01:48:07;;;;;;;11.98;6.88;;;;;;;13.46;100.00;100958.28;10437723;28;20076;-78
2024/02/16 01:53:30;;;;;;;19.98;9.07;;;;;;;13.71;100.00;100955.78;10501952;28;20252;-78
2024/02/16 01:58:54;;;;;;;13.45;7.20;;;;;;;13.91;100.00;100952.34;10499417;28;20069;-78
2024/02/16 02:04:19;;;;;;;15.88;8.18;;;;;;;13.93;100.00;100944.41;10433007;28;20052;-78
2024/02/16 02:09:42;;;;;;;12.73;6.90;;;;;;;14.00;100.00;100946.19;10478615;28;20157;-78
2024/02/16 02:15:07;;;;;;;12.15;8.30;;;;;;;13.82;100.00;100939.03;10442705;28;20056;-78
2024/02/16 02:20:29;;;;;;;13.48;8.00;;;;;;;13.73;100.00;100938.09;10451779;28;20075;-78
2024/02/16 02:25:54;;;;;;;13.38;7.50;;;;;;;13.49;100.00;100945.03;10484279;28;20654;-78
2024/02/16 02:31:16;;;;;;;12.07;7.82;;;;;;;13.26;100.00;100954.59;10477540;28;20402;-78
2024/02/16 02:36:39;;;;;;;19.60;8.68;;;;;;;13.18;100.00;100963.38;10460256;28;20422;-77
2024/02/16 02:42:03;;;;;;;14.70;8.05;;;;;;;13.15;100.00;100967.75;10421467;28;20045;-78
2024/02/16 02:47:25;;;;;;;12.55;6.65;;;;;;;13.09;100.00;100977.38;10488755;28;20563;-78
2024/02/16 02:52:48;;;;;;;8.93;4.53;;;;;;;13.05;100.00;100981.78;10449682;28;20076;-78
2024/02/16 02:58:12;;;;;;;8.50;4.32;;;;;;;12.94;100.00;100986.09;10487934;28;20109;-77
2024/02/16 03:03:34;;;;;;;8.27;3.63;;;;;;;12.87;100.00;100988.66;10485358;28;20041;-78
2024/02/16 03:08:57;;;;;;;6.85;3.90;;;;;;;12.80;100.00;100990.34;10475022;28;20075;-78
2024/02/16 03:14:21;;;;;;;9.25;4.18;;;;;;;12.82;100.00;101000.97;10434868;28;20140;-78
2024/02/16 03:19:43;;;;;;;7.72;4.30;;;;;;;12.73;100.00;101001.78;10454377;28;20387;-78
2024/02/16 03:25:06;;;;;;;8.60;3.70;;;;;;;12.84;100.00;101004.53;10469127;28;20050;-78
2024/02/16 03:30:30;;;;;;;9.05;4.03;;;;;;;12.83;100.00;101016.00;10429793;28;20394;-78
2024/02/16 03:35:53;;;;;;;9.25;3.78;;;;;;;13.00;100.00;101017.03;10468797;28;20052;-78
2024/02/16 03:41:16;;;;;;;11.23;6.00;;;;;;;13.13;100.00;101024.28;10447757;28;20045;-78
2024/02/16 03:46:40;;;;;;;13.88;6.30;;;;;;;13.30;100.00;101035.94;10451674;28;20122;-78
2024/02/16 03:52:03;;;;;;;11.88;5.13;;;;;;;13.40;100.00;101034.25;10487717;28;20056;-78
2024/02/16 03:57:26;;;;;;;19.52;6.18;;;;;;;13.13;100.00;101050.78;10500424;28;20041;-80
2024/02/16 04:02:50;;;;;;;10.38;7.05;;;;;;;12.60;100.00;101063.44;10449428;28;20049;-82
2024/02/16 04:08:12;;;;;;;15.32;6.88;;;;;;;12.41;100.00;101062.28;10456691;28;20049;-81
2024/02/16 04:13:35;;;;;;;13.48;7.60;;;;;;;12.32;100.00;101056.91;10508953;28;20045;-81
2024/02/16 04:18:58;;;;;;;18.05;9.05;;;;;;;11.77;100.00;101056.09;10489630;28;20063;-79
2024/02/16 04:24:21;;;;;;;31.00;19.50;;;;;;;12.04;100.00;101068.84;10465590;28;20060;-79
2024/02/16 04:29:43;;;;;;;14.68;9.68;;;;;;;12.17;100.00;101068.16;10480577;28;20106;-78
2024/02/16 04:35:11;;;;;;;31.35;21.27;;;;;;;12.20;100.00;101078.81;10474015;28;20140;-77
2024/02/16 04:40:37;;;;;;;20.83;13.93;;;;;;;12.29;100.00;101083.31;10414871;28;20082;-77
2024/02/16 04:45:59;;;;;;;18.08;10.85;;;;;;;12.45;100.00;101076.47;10459437;28;20052;-77
2024/02/16 04:51:23;;;;;;;24.52;13.20;;;;;;;12.52;100.00;101087.19;10470836;28;20139;-77
2024/02/16 04:56:46;;;;;;;13.35;6.80;;;;;;;12.52;100.00;101084.53;10458718;28;20046;-77
2024/02/16 05:02:08;;;;;;;15.02;5.70;;;;;;;12.57;100.00;101093.41;10493516;28;20127;-77
2024/02/16 05:07:33;;;;;;;18.35;7.00;;;;;;;12.70;100.00;101094.44;10473882;28;20479;-77
2024/02/16 05:12:58;;;;;;;15.95;6.90;;;;;;;12.91;100.00;101107.97;10491814;28;20140;-77
2024/02/16 05:18:23;;;;;;;18.48;11.88;;;;;;;13.06;100.00;101089.56;10469751;28;20127;-77
2024/02/16 05:23:47;;;;;;;15.32;5.90;;;;;;;13.25;100.00;101096.00;10498860;28;20452;-77
2024/02/16 05:29:09;;;;;;;15.05;8.98;;;;;;;13.35;100.00;101102.25;10457113;28;20041;-77
2024/02/16 05:34:37;;;;;;;10.75;5.25;;;;;;;13.60;100.00;101113.97;10452112;28;20763;-77
2024/02/16 05:40:18;;;;;;;12.17;5.23;;;;;;;13.72;100.00;101098.19;10502840;28;20052;-77
2024/02/16 05:45:41;;;;;;;18.63;9.90;;;;;;;13.84;100.00;101117.75;10500214;28;20045;-77
2024/02/16 05:51:05;;;;;;;16.98;5.20;;;;;;;13.59;100.00;101120.19;10456507;28;20449;-77
2024/02/16 05:56:29;;;;;;;11.00;4.30;;;;;;;13.25;100.00;101137.53;10506067;28;20529;-77
2024/02/16 06:01:51;;;;;;;10.43;4.63;;;;;;;13.05;100.00;101147.88;10466324;28;20387;-78
2024/02/16 06:07:14;;;;;;;16.33;6.68;;;;;;;12.95;100.00;101173.34;10440867;28;20044;-78
2024/02/16 06:12:39;;;;;;;37.80;27.95;;;;;;;12.78;100.00;101191.69;10459179;28;20045;-77
2024/02/16 06:18:03;;;;;;;28.27;12.85;;;;;;;12.60;100.00;101193.22;10443585;28;20471;-77
2024/02/16 06:23:26;;;;;;;60.78;24.55;;;;;;;12.53;100.00;101200.19;10456776;28;20053;-77
2024/02/16 06:28:49;;;;;;;18.85;5.95;;;;;;;12.64;100.00;101203.88;10445030;28;20040;-76
2024/02/16 06:34:12;;;;;;;16.90;8.18;;;;;;;12.69;100.00;101204.81;10466177;28;20091;-77
2024/02/16 06:39:35;;;;;;;22.98;6.10;;;;;;;12.81;100.00;101227.03;10450430;28;20129;-77
2024/02/16 06:44:59;;;;;;;15.68;4.68;;;;;;;12.80;100.00;101227.94;10466925;28;20510;-76
2024/02/16 06:50:21;;;;;;;46.03;25.88;;;;;;;12.85;100.00;101231.53;10429226;28;20041;-75
2024/02/16 06:55:44;;;;;;;25.33;8.02;;;;;;;12.90;100.00;101246.63;10426955;28;20047;-76
2024/02/16 07:01:08;;;;;;;42.55;19.50;;;;;;;12.99;100.00;101249.41;10458506;28;20087;-76
2024/02/16 07:06:31;;;;;;;23.35;10.25;;;;;;;13.02;100.00;101264.44;10445248;28;20095;-77
2024/02/16 07:11:53;;;;;;;33.95;12.38;;;;;;;12.99;100.00;101261.75;10449098;28;20220;-76
2024/02/16 07:17:18;;;;;;;32.22;20.65;;;;;;;13.05;100.00;101257.44;10464974;28;20045;-75
2024/02/16 07:22:41;;;;;;;37.38;27.60;;;;;;;13.01;100.00;101271.50;10473466;28;20040;-77
2024/02/16 07:28:03;;;;;;;44.45;34.85;;;;;;;13.01;100.00;101265.28;10452744;28;20072;-76
2024/02/16 07:33:28;;;;;;;45.00;37.70;;;;;;;13.01;100.00;101262.66;10430276;28;20052;-76
2024/02/16 07:38:50;;;;;;;42.55;34.95;;;;;;;13.14;100.00;101264.63;10460585;28;20037;-76
2024/02/16 07:44:13;;;;;;;34.50;28.98;;;;;;;13.26;100.00;101272.72;10460207;28;20059;-76
2024/02/16 07:49:39;;;;;;;40.63;35.13;;;;;;;13.32;100.00;101272.84;10446699;28;20072;-75
2024/02/16 07:55:01;;;;;;;22.67;18.05;;;;;;;13.47;100.00;101265.06;10474917;28;20073;-75
2024/02/16 08:00:24;;;;;;;21.42;16.60;;;;;;;13.54;100.00;101261.59;10447173;28;20511;-75
2024/02/16 08:05:48;;;;;;;22.05;17.88;;;;;;;13.72;100.00;101275.97;10472272;28;20049;-76
2024/02/16 08:11:10;;;;;;;14.70;6.78;;;;;;;13.82;100.00;101280.47;10446786;28;20701;-76
2024/02/16 08:16:34;;;;;;;8.43;5.50;;;;;;;13.90;100.00;101284.13;10474106;28;20048;-75
2024/02/16 08:21:58;;;;;;;12.63;4.90;;;;;;;14.01;100.00;101289.53;10454293;28;20049;-76
2024/02/16 08:27:21;;;;;;;14.80;5.78;;;;;;;14.07;100.00;101289.56;10453060;28;20051;-76
2024/02/16 08:32:44;;;;;;;15.23;9.13;;;;;;;14.10;100.00;101303.78;10480597;28;20045;-76
2024/02/16 08:38:10;;;;;;;17.25;13.63;;;;;;;14.30;100.00;101309.28;10476838;28;20137;-75
2024/02/16 08:43:33;;;;;;;19.30;9.60;;;;;;;14.29;100.00;101311.06;10455414;28;20129;-76
2024/02/16 08:48:55;;;;;;;15.60;10.32;;;;;;;14.26;100.00;101324.28;10449309;28;20055;-76
2024/02/16 08:54:19;;;;;;;12.45;7.38;;;;;;;14.22;100.00;101333.13;10456892;28;20662;-77
2024/02/16 08:59:42;;;;;;;15.73;6.50;;;;;;;14.20;100.00;101336.63;10451977;28;20704;-77
2024/02/16 09:05:09;;;;;;;18.08;6.25;;;;;;;14.14;100.00;101333.91;10446622;28;20091;-76
2024/02/16 09:10:34;;;;;;;14.93;9.02;;;;;;;14.02;100.00;101339.97;10452555;28;20485;-77
2024/02/16 09:15:57;;;;;;;18.33;10.68;;;;;;;13.90;100.00;101346.06;10452114;28;20049;-77
2024/02/16 09:21:20;;;;;;;11.93;5.18;;;;;;;13.87;100.00;101346.00;10413849;28;20110;-76
2024/02/16 09:26:45;;;;;;;13.98;5.38;;;;;;;13.81;100.00;101351.25;10475745;28;20051;-78
2024/02/16 09:32:08;;;;;;;16.05;6.50;;;;;;;13.82;100.00;101352.13;10476502;28;20049;-76
2024/02/16 09:37:30;;;;;;;12.65;5.35;;;;;;;13.97;100.00;101341.72;10450348;28;20047;-77
2024/02/16 09:42:54;;;;;;;20.55;7.05;;;;;;;13.91;100.00;101346.94;10455894;28;20047;-77
2024/02/16 09:48:17;;;;;;;17.20;8.15;;;;;;;13.93;100.00;101329.25;10450922;28;20052;-77
2024/02/16 09:53:39;;;;;;;18.17;10.60;;;;;;;14.03;100.00;101344.41;10443187;28;20053;-76
2024/02/16 09:59:04;;;;;;;15.48;6.13;;;;;;;14.00;100.00;101348.78;10449410;28;20041;-76
2024/02/16 10:04:26;;;;;;;19.20;8.63;;;;;;;13.83;100.00;101354.81;10436164;28;20053;-77
2024/02/16 10:09:48;;;;;;;16.27;6.40;;;;;;;13.88;100.00;101347.78;10413219;28;20037;-78
2024/02/16 10:15:12;;;;;;;21.45;7.60;;;;;;;13.89;100.00;101354.00;10447431;28;20049;-77
2024/02/16 10:20:36;;;;;;;14.40;8.50;;;;;;;13.94;100.00;101344.31;10447662;28;20052;-76
2024/02/16 10:25:41;;;;;;;10.52;4.57;;;;;;;14.13;100.00;101337.44;10442909;28;20080;-77
2024/02/16 10:30:45;;;;;;;9.32;5.60;;;;;;;14.55;100.00;101335.22;10452595;28;20076;-77
2024/02/16 10:35:48;;;;;;;12.10;6.72;;;;;;;14.91;100.00;101325.75;10452182;28;20039;-76
2024/02/16 10:40:52;;;;;;;8.88;5.20;;;;;;;15.11;100.00;101319.66;10448488;28;20473;-77
2024/02/16 10:46:17;;;;;;;15.80;6.50;;;;;;;15.21;100.00;101315.31;10447090;28;20053;-77
2024/02/16 10:51:45;;;;;;;12.13;9.95;;;;;;;15.15;100.00;101312.63;10447023;28;20129;-78
2024/02/16 10:57:09;;;;;;;13.93;5.40;;;;;;;15.17;100.00;101318.81;10444787;28;20044;-77
2024/02/16 11:02:36;;;;;;;10.77;4.15;;;;;;;15.25;100.00;101316.19;10471994;28;20053;-78
2024/02/16 11:08:02;;;;;;;11.00;5.05;;;;;;;15.35;100.00;101307.41;10417444;28;20041;-78
2024/02/16 11:13:26;;;;;;;9.75;5.07;;;;;;;15.52;100.00;101305.69;10430965;28;20449;-77
2024/02/16 11:18:50;;;;;;;15.13;5.55;;;;;;;15.74;100.00;101301.38;10466909;28;20487;-79
2024/02/16 11:24:15;;;;;;;11.52;5.15;;;;;;;15.52;100.00;101292.38;10445630;28;20052;-77
2024/02/16 11:29:40;;;;;;;14.15;5.57;;;;;;;15.38;100.00;101296.75;10424154;28;20042;-77
2024/02/16 11:35:08;;;;;;;10.50;5.13;;;;;;;15.56;100.00;101291.53;10432156;28;20506;-76
2024/02/16 11:40:31;;;;;;;14.73;5.20;;;;;;;16.06;100.00;101289.03;10469967;28;20102;-77
2024/02/16 11:45:54;;;;;;;9.68;5.13;;;;;;;16.39;100.00;101297.94;10436523;28;20049;-78
2024/02/16 11:51:18;;;;;;;12.85;5.70;;;;;;;17.04;100.00;101293.47;10443550;28;20049;-77
2024/02/16 11:56:42;;;;;;;10.48;5.55;;;;;;;17.43;100.00;101286.22;10438610;28;20116;-75
2024/02/16 12:02:08;;;;;;;10.27;4.57;;;;;;;17.77;100.00;101297.69;10477868;28;20063;-77
2024/02/16 12:07:32;;;;;;;9.00;5.10;;;;;;;17.75;100.00;101296.78;10452642;28;20037;-76
2024/02/16 12:12:55;;;;;;;8.68;4.75;;;;;;;17.72;100.00;101302.16;10439616;28;20069;-77
2024/02/16 12:18:21;;;;;;;10.00;4.90;;;;;;;17.82;100.00;101298.53;10440242;28;20564;-77
2024/02/16 12:23:45;;;;;;;7.60;4.50;;;;;;;17.91;100.00;101296.72;10451817;28;20052;-76
2024/02/16 12:29:08;;;;;;;12.35;4.93;;;;;;;18.30;100.00;101300.91;10444542;28;20437;-76
2024/02/16 12:34:31;;;;;;;8.73;5.22;;;;;;;18.41;100.00;101295.47;10439353;28;20056;-75
2024/02/16 12:39:55;;;;;;;12.48;5.78;;;;;;;18.87;100.00;101295.97;10416028;28;20041;-76
2024/02/16 12:45:17;;;;;;;9.57;4.45;;;;;;;19.02;100.00;101300.28;10458843;28;20053;-76
2024/02/16 12:50:41;;;;;;;10.90;4.72;;;;;;;19.19;100.00;101300.97;10436302;28;20057;-76
2024/02/16 12:56:06;;;;;;;11.00;6.28;;;;;;;19.23;100.00;101297.34;10416959;28;20061;-76
2024/02/16 13:01:28;;;;;;;8.32;5.07;;;;;;;18.90;100.00;101306.66;10428991;28;20045;-76
2024/02/16 13:06:52;;;;;;;8.68;4.40;;;;;;;18.51;100.00;101297.13;10450556;28;20158;-77
2024/02/16 13:12:16;;;;;;;9.32;5.90;;;;;;;17.92;100.00;101295.78;10438561;28;20061;-75
2024/02/16 13:17:38;;;;;;;11.52;5.00;;;;;;;17.50;100.00;101290.66;10441830;28;20045;-75
2024/02/16 13:23:01;;;;;;;8.80;4.88;;;;;;;17.74;100.00;101298.56;10451339;28;20056;-75
2024/02/16 13:28:25;;;;;;;14.85;5.90;;;;;;;17.92;100.00;101302.91;10449454;28;20048;-76
2024/02/16 13:33:47;;;;;;;9.07;5.47;;;;;;;17.99;100.00;101291.28;10448140;28;20579;-76
2024/02/16 13:39:10;;;;;;;7.65;5.30;;;;;;;17.81;100.00;101297.63;10450631;28;20063;-77
2024/02/16 13:44:34;;;;;;;7.55;5.15;;;;;;;17.68;100.00;101305.72;10451134;28;20037;-75
2024/02/16 13:49:58;;;;;;;11.63;5.93;;;;;;;17.42;100.00;101328.03;10428240;28;20054;-76
2024/02/16 13:55:20;;;;;;;10.45;4.40;;;;;;;17.22;100.00;101329.00;10448361;28;20041;-75
2024/02/16 14:00:44;;;;;;;8.43;4.65;;;;;;;17.27;100.00;101328.06;10476787;28;20055;-77
2024/02/16 14:06:09;;;;;;;9.32;4.80;;;;;;;17.46;100.00;101332.47;10434501;28;20057;-76
2024/02/16 14:11:32;;;;;;;10.10;5.47;;;;;;;17.38;100.00;101333.41;10465866;28;20089;-77
2024/02/16 14:16:56;;;;;;;10.43;6.07;;;;;;;17.21;100.00;101336.09;10447844;28;20057;-76
2024/02/16 14:22:19;;;;;;;10.68;5.80;;;;;;;16.78;100.00;101351.28;10447464;28;20045;-76
2024/02/16 14:27:42;;;;;;;11.23;6.85;;;;;;;16.64;100.00;101351.28;10457653;28;20052;-77
2024/02/16 14:33:06;;;;;;;14.57;8.70;;;;;;;16.76;100.00;101358.41;10443875;28;20048;-77
2024/02/16 14:38:29;;;;;;;11.02;5.30;;;;;;;16.66;100.00;101352.19;10435479;28;20406;-77
2024/02/16 14:43:51;;;;;;;7.20;5.35;;;;;;;16.70;100.00;101350.41;10423671;28;20079;-77
2024/02/16 14:49:20;;;;;;;8.35;5.72;;;;;;;16.71;100.00;101354.84;10439346;28;20057;-78
2024/02/16 14:54:43;;;;;;;9.15;4.68;;;;;;;16.55;100.00;101351.25;10448261;28;20103;-78
2024/02/16 15:00:06;;;;;;;8.00;5.10;;;;;;;16.31;100.00;101357.44;10447241;28;20057;-77
2024/02/16 15:05:30;;;;;;;10.13;5.43;;;;;;;16.12;100.00;101362.72;10433459;28;20166;-77
2024/02/16 15:10:53;;;;;;;7.57;6.32;;;;;;;16.01;100.00;101372.47;10433206;28;20585;-75
2024/02/16 15:16:15;;;;;;;11.68;5.90;;;;;;;15.95;100.00;101368.88;10460889;28;20041;-77
2024/02/16 15:21:39;;;;;;;12.90;7.60;;;;;;;15.85;100.00;101374.19;10446162;28;20052;-77
2024/02/16 15:27:03;;;;;;;10.70;6.00;;;;;;;15.71;100.00;101381.22;10444951;28;20391;-77
2024/02/16 15:32:25;;;;;;;11.00;8.63;;;;;;;15.59;100.00;101390.03;10432788;28;20415;-77
2024/02/16 15:37:49;;;;;;;13.27;7.00;;;;;;;15.51;100.00;101391.72;10440359;28;20529;-76
2024/02/16 15:43:12;;;;;;;10.55;7.18;;;;;;;15.46;100.00;101398.81;10454175;28;20441;-79
2024/02/16 15:48:34;;;;;;;10.18;6.93;;;;;;;15.37;100.00;101404.06;10445742;28;20410;-78
2024/02/16 15:54:00;;;;;;;12.45;5.68;;;;;;;15.32;100.00;101408.47;10432109;28;20056;-76
2024/02/16 15:59:23;;;;;;;12.43;6.38;;;;;;;15.26;100.00;101409.31;10446220;28;20045;-77
2024/02/16 16:04:45;;;;;;;19.45;13.65;;;;;;;15.28;100.00;101420.88;10455008;28;20056;-77
2024/02/16 16:10:10;;;;;;;17.10;13.30;;;;;;;15.20;100.00;101421.69;10472572;28;20386;-77
2024/02/16 16:15:33;;;;;;;22.38;11.15;;;;;;;15.13;100.00;101429.63;10443929;28;20083;-77
2024/02/16 16:20:55;;;;;;;16.20;12.93;;;;;;;15.10;100.00;101437.56;10460304;28;20505;-77
2024/02/16 16:26:20;;;;;;;19.65;12.88;;;;;;;15.07;100.00;101437.56;10419141;28;20048;-77
2024/02/16 16:31:42;;;;;;;18.10;12.95;;;;;;;15.05;100.00;101436.63;10424414;28;20049;-77
2024/02/16 16:37:05;;;;;;;20.35;15.13;;;;;;;15.04;100.00;101439.28;10431248;28;20131;-77
2024/02/16 16:42:29;;;;;;;18.23;14.95;;;;;;;15.14;100.00;101447.38;10478178;28;20052;-76
2024/02/16 16:47:51;;;;;;;29.50;26.40;;;;;;;15.12;100.00;101454.44;10452062;28;20091;-76
2024/02/16 16:53:14;;;;;;;20.52;12.48;;;;;;;15.11;100.00;101451.75;10466516;28;20053;-77
2024/02/16 16:58:38;;;;;;;19.55;13.35;;;;;;;15.07;100.00;101469.47;10466242;28;20045;-77
2024/02/16 17:04:01;;;;;;;29.48;23.00;;;;;;;15.12;100.00;101469.50;10452556;28;20052;-77
2024/02/16 17:09:23;;;;;;;22.60;17.80;;;;;;;15.14;100.00;101473.97;10480720;28;20045;-77
2024/02/16 17:14:47;;;;;;;24.25;21.65;;;;;;;15.15;100.00;101472.19;10469724;28;20053;-79
2024/02/16 17:20:11;;;;;;;11.73;8.80;;;;;;;15.06;100.00;101480.97;10441101;28;20126;-77
2024/02/16 17:25:33;;;;;;;17.33;12.82;;;;;;;15.00;100.00;101488.91;10471859;28;20053;-77
2024/02/16 17:30:57;;;;;;;27.30;20.58;;;;;;;15.02;100.00;101488.91;10442296;28;20068;-80
2024/02/16 17:36:20;;;;;;;25.40;21.38;;;;;;;15.15;100.00;101493.47;10447721;28;20053;-77
2024/02/16 17:41:43;;;;;;;23.88;18.48;;;;;;;15.05;100.00;101492.47;10442085;28;20574;-78
2024/02/16 17:47:07;;;;;;;18.77;14.95;;;;;;;15.07;100.00;101497.81;10447579;28;20049;-76
2024/02/16 17:52:30;;;;;;;18.00;15.82;;;;;;;14.99;100.00;101508.38;10461274;28;20053;-78
2024/02/16 17:57:52;;;;;;;18.75;12.90;;;;;;;15.00;100.00;101509.28;10434175;28;20063;-76
2024/02/16 18:03:18;;;;;;;53.85;30.88;;;;;;;15.03;100.00;101506.66;10437273;28;20136;-76
2024/02/16 18:08:40;;;;;;;20.73;14.13;;;;;;;14.96;100.00;101516.34;10434876;28;20665;-77
2024/02/16 18:14:03;;;;;;;19.30;16.92;;;;;;;14.86;100.00;101518.88;10448086;28;20041;-77
2024/02/16 18:19:27;;;;;;;29.08;25.92;;;;;;;14.84;100.00;101532.16;10442305;28;20063;-79
2024/02/16 18:24:50;;;;;;;27.30;24.13;;;;;;;14.88;100.00;101538.41;10458692;28;20710;-77
2024/02/16 18:30:14;;;;;;;18.45;16.58;;;;;;;14.90;100.00;101534.00;10433586;28;20045;-77
2024/02/16 18:35:38;;;;;;;15.68;14.18;;;;;;;14.81;100.00;101542.78;10433740;28;20041;-76
2024/02/16 18:41:00;;;;;;;17.90;16.02;;;;;;;14.83;100.00;101545.44;10453847;28;20041;-79
2024/02/16 18:46:23;;;;;;;26.52;23.83;;;;;;;14.92;100.00;101549.09;10404778;28;20050;-78
2024/02/16 18:51:47;;;;;;;23.50;20.85;;;;;;;14.94;100.00;101552.66;10443697;28;20049;-78
2024/02/16 18:57:09;;;;;;;20.63;18.50;;;;;;;14.96;100.00;101552.69;10480701;28;20107;-76
2024/02/16 19:02:32;;;;;;;16.20;13.35;;;;;;;14.92;100.00;101556.16;10480476;28;20411;-77
2024/02/16 19:07:56;;;;;;;21.10;17.92;;;;;;;14.95;100.00;101564.19;10491591;28;20037;-77
2024/02/16 19:13:18;;;;;;;16.27;13.43;;;;;;;14.98;100.00;101572.19;10454983;28;20051;-79
2024/02/16 19:18:41;;;;;;;20.40;16.17;;;;;;;15.04;100.00;101574.91;10470161;28;20092;-79
2024/02/16 19:24:07;;;;;;;17.75;11.13;;;;;;;15.02;100.00;101566.03;10440245;28;20049;-78
2024/02/16 19:29:29;;;;;;;17.48;13.07;;;;;;;14.93;100.00;101571.25;10439068;28;20056;-80
2024/02/16 19:34:53;;;;;;;16.27;11.57;;;;;;;14.76;100.00;101573.72;10479725;28;20489;-80
2024/02/16 19:40:16;;;;;;;27.52;22.35;;;;;;;14.75;100.00;101570.19;10483808;28;20064;-79
2024/02/16 19:45:39;;;;;;;21.02;17.25;;;;;;;14.78;100.00;101566.66;10448540;28;20452;-78
2024/02/16 19:51:01;;;;;;;19.30;14.63;;;;;;;14.80;100.00;101575.53;10444886;28;20130;-79
2024/02/16 19:56:25;;;;;;;21.85;17.52;;;;;;;14.84;100.00;101576.44;10438209;28;20057;-78
2024/02/16 20:01:48;;;;;;;18.15;13.70;;;;;;;14.82;100.00;101579.13;10434623;28;20108;-79
2024/02/16 20:07:10;;;;;;;19.40;14.60;;;;;;;14.84;100.00;101580.00;10464153;28;20045;-79
2024/02/16 20:12:35;;;;;;;23.80;18.98;;;;;;;14.90;100.00;101574.75;10477290;28;20068;-78
2024/02/16 20:17:58;;;;;;;16.10;11.00;;;;;;;14.86;100.00;101583.59;10477245;28;20041;-78
2024/02/16 20:23:22;;;;;;;21.38;13.40;;;;;;;14.74;100.00;101586.09;10439605;28;20144;-77
2024/02/16 20:28:46;;;;;;;24.17;17.15;;;;;;;14.77;100.00;101587.00;10466213;28;20605;-77
2024/02/16 20:34:09;;;;;;;47.05;27.08;;;;;;;14.80;100.00;101594.16;10468862;28;20081;-77
2024/02/16 20:39:34;;;;;;;26.25;17.67;;;;;;;14.86;100.00;101594.22;10477478;28;20073;-78
2024/02/16 20:44:58;;;;;;;15.85;11.30;;;;;;;14.85;100.00;101596.84;10454473;28;20055;-78
2024/02/16 20:50:21;;;;;;;14.55;10.88;;;;;;;14.81;100.00;101601.25;10440055;28;20072;-77
2024/02/16 20:55:44;;;;;;;30.88;20.65;;;;;;;14.65;100.00;101605.47;10466629;28;20045;-78
2024/02/16 21:01:08;;;;;;;20.85;14.80;;;;;;;14.24;100.00;101604.03;10439434;28;20045;-78
2024/02/16 21:06:31;;;;;;;28.88;21.40;;;;;;;13.91;100.00;101609.72;10438156;28;20053;-77
2024/02/16 21:11:56;;;;;;;30.70;19.60;;;;;;;13.65;100.00;101605.75;10480994;28;20383;-77
2024/02/16 21:17:20;;;;;;;23.25;14.68;;;;;;;13.43;100.00;101608.03;10464915;28;20053;-76
2024/02/16 21:22:42;;;;;;;24.38;18.00;;;;;;;13.35;100.00;101607.00;10451989;28;20037;-76
2024/02/16 21:28:05;;;;;;;30.80;19.05;;;;;;;13.28;100.00;101605.09;10479502;28;20053;-76
2024/02/16 21:33:30;;;;;;;20.45;13.93;;;;;;;13.25;100.00;101617.44;10451705;28;20045;-77
2024/02/16 21:38:53;;;;;;;25.73;16.42;;;;;;;13.15;100.00;101613.69;10444313;28;20131;-77
2024/02/16 21:44:15;;;;;;;20.40;12.70;;;;;;;13.06;100.00;101624.97;10450566;28;20497;-77
2024/02/16 21:49:39;;;;;;;20.05;13.75;;;;;;;13.18;100.00;101621.72;10465935;28;20079;-77
2024/02/16 21:55:01;;;;;;;27.98;19.20;;;;;;;13.33;100.00;101615.78;10436334;28;20148;-77
2024/02/16 22:00:24;;;;;;;29.58;17.23;;;;;;;13.40;100.00;101610.63;10466346;28;20131;-77
2024/02/16 22:05:48;;;;;;;24.30;18.02;;;;;;;13.48;100.00;101616.06;10440960;28;20056;-77
2024/02/16 22:11:11;;;;;;;20.55;13.57;;;;;;;13.45;100.00;101619.59;10436985;28;20110;-77
2024/02/16 22:16:33;;;;;;;16.35;12.18;;;;;;;13.74;100.00;101613.84;10456731;28;20048;-77
2024/02/16 22:21:57;;;;;;;16.48;12.48;;;;;;;14.01;100.00;101614.28;10470884;28;20037;-77
2024/02/16 22:27:20;;;;;;;13.57;9.82;;;;;;;14.22;100.00;101614.63;10436347;28;20055;-77
2024/02/16 22:32:42;;;;;;;17.70;10.90;;;;;;;14.31;100.00;101609.41;10450161;28;20392;-77
2024/02/16 22:38:06;;;;;;;17.63;11.38;;;;;;;14.36;100.00;101613.06;10447590;28;20499;-77
2024/02/16 22:43:29;;;;;;;16.73;12.68;;;;;;;14.46;100.00;101613.19;10436331;28;20049;-77
2024/02/16 22:48:51;;;;;;;15.35;9.63;;;;;;;14.45;100.00;101616.72;10435562;28;20071;-77
2024/02/16 22:54:15;;;;;;;14.88;9.95;;;;;;;14.41;100.00;101614.91;10448838;28;20146;-77
2024/02/16 22:59:38;;;;;;;13.02;9.57;;;;;;;14.24;100.00;101614.66;10448591;28;20049;-77
2024/02/16 23:05:00;;;;;;;15.50;9.23;;;;;;;14.05;100.00;101613.47;10448918;28;20049;-77
2024/02/16 23:10:24;;;;;;;10.48;7.28;;;;;;;13.77;100.00;101624.53;10447496;28;20072;-77
2024/02/16 23:15:47;;;;;;;14.85;8.63;;;;;;;13.53;100.00;101619.69;10467980;28;20060;-77
2024/02/16 23:21:09;;;;;;;11.57;8.25;;;;;;;13.56;100.00;101620.66;10416853;28;20048;-77
2024/02/16 23:26:33;;;;;;;14.13;7.40;;;;;;;13.66;100.00;101624.34;10448327;28;20057;-77
2024/02/16 23:31:59;;;;;;;9.20;6.68;;;;;;;13.64;100.00;101627.84;10447369;28;20056;-77
2024/02/16 23:37:22;;;;;;;10.20;7.43;;;;;;;13.90;100.00;101621.22;10447079;28;20041;-76
2024/02/16 23:42:46;;;;;;;11.63;6.90;;;;;;;13.95;100.00;101624.81;10443744;28;20073;-77
2024/02/16 23:48:08;;;;;;;13.07;6.97;;;;;;;14.02;100.00;101624.03;10447592;28;20060;-77
2024/02/16 23:53:31;;;;;;;13.10;6.28;;;;;;;14.22;100.00;101621.69;10454013;28;20045;-77
2024/02/16 23:58:55;;;;;;;10.13;7.25;;;;;;;14.32;100.00;101619.19;10443657;28;20469;-77
